Time;durP1;ratioP1;P1;durP2;ratioP2;P2;SDS_P1;SDS_P2;PMS_P1;PMS_P2;Temp;Humidity;BMP_temperature;BMP_pressure;BME280_temperature;BME280_humidity;BME280_pressure;Samples;Min_cycle;Max_cycle;Signal;HPM_P1;HPM_P2
2022/08/31 00:04:24;;;;;;;4.18;2.90;;;17.90;99.90;;;;;;5118330;28;20575;-66
2022/08/31 00:06:50;;;;;;;3.92;2.90;;;17.90;99.90;;;;;;5116648;28;20208;-66
2022/08/31 00:09:15;;;;;;;4.47;2.97;;;17.80;99.90;;;;;;5117982;28;20164;-65
2022/08/31 00:11:41;;;;;;;4.35;2.78;;;17.80;99.90;;;;;;5118516;28;20177;-65
2022/08/31 00:14:09;;;;;;;6.53;2.83;;;17.70;99.90;;;;;;5118193;28;20265;-67
2022/08/31 00:16:39;;;;;;;3.33;2.92;;;17.70;99.90;;;;;;5117762;28;20173;-66
2022/08/31 00:19:05;;;;;;;3.60;2.78;;;17.70;99.90;;;;;;5117971;28;20215;-66
2022/08/31 00:21:32;;;;;;;5.72;3.13;;;17.70;99.90;;;;;;5117725;28;20186;-65
2022/08/31 00:23:58;;;;;;;4.50;3.00;;;17.60;99.90;;;;;;5117774;28;20226;-66
2022/08/31 00:26:24;;;;;;;4.40;2.47;;;17.60;99.90;;;;;;5118012;28;20272;-66
2022/08/31 00:28:50;;;;;;;4.38;2.38;;;17.60;99.90;;;;;;5117975;28;20168;-66
2022/08/31 00:31:16;;;;;;;3.28;2.47;;;17.50;99.90;;;;;;5117293;28;20169;-66
2022/08/31 00:33:42;;;;;;;4.20;2.50;;;17.50;99.90;;;;;;5117542;28;20625;-66
2022/08/31 00:36:12;;;;;;;3.03;2.50;;;17.50;99.90;;;;;;5117407;28;20197;-66
2022/08/31 00:38:40;;;;;;;3.45;2.50;;;17.50;99.90;;;;;;5117464;28;20685;-66
2022/08/31 00:41:08;;;;;;;3.38;2.85;;;17.40;99.90;;;;;;5117704;28;20294;-65
2022/08/31 00:43:47;;;;;;;2.92;2.20;;;17.40;99.90;;;;;;5117490;28;20168;-66
2022/08/31 00:46:16;;;;;;;5.00;2.70;;;17.40;99.90;;;;;;5117067;28;20753;-66
2022/08/31 00:48:54;;;;;;;3.83;2.60;;;17.40;99.90;;;;;;5115813;28;20261;-66
2022/08/31 00:51:20;;;;;;;4.72;2.50;;;17.40;99.90;;;;;;5116031;28;20171;-66
2022/08/31 00:53:47;;;;;;;2.60;2.40;;;17.30;99.90;;;;;;5117720;27;20167;-65
2022/08/31 00:56:13;;;;;;;4.25;2.50;;;17.30;99.90;;;;;;5116268;28;20275;-68
2022/08/31 00:58:39;;;;;;;2.40;2.20;;;17.30;99.90;;;;;;5117020;27;20641;-67
2022/08/31 01:01:07;;;;;;;3.85;2.50;;;17.30;99.90;;;;;;5115664;28;20176;-67
2022/08/31 01:03:33;;;;;;;3.25;2.20;;;17.30;99.90;;;;;;5115909;28;20173;-67
2022/08/31 01:06:00;;;;;;;2.55;2.10;;;17.20;99.90;;;;;;5116824;28;20227;-68
2022/08/31 01:08:26;;;;;;;2.53;2.20;;;17.20;99.90;;;;;;5115681;28;20173;-68
2022/08/31 01:10:52;;;;;;;6.15;2.42;;;17.20;99.90;;;;;;5115566;28;20640;-67
2022/08/31 01:13:18;;;;;;;2.95;2.20;;;17.20;99.90;;;;;;5117444;28;20585;-68
2022/08/31 01:15:48;;;;;;;3.17;2.20;;;17.20;99.90;;;;;;5115939;28;20695;-68
2022/08/31 01:18:15;;;;;;;2.85;2.10;;;17.20;99.90;;;;;;5118241;28;20187;-68
2022/08/31 01:20:55;;;;;;;2.80;2.30;;;17.20;99.90;;;;;;5119339;28;20196;-69
2022/08/31 01:23:20;;;;;;;2.92;2.05;;;17.20;99.90;;;;;;5120010;28;20163;-68
2022/08/31 01:25:48;;;;;;;2.25;2.05;;;17.20;99.90;;;;;;5115434;28;20217;-67
2022/08/31 01:28:14;;;;;;;2.63;2.30;;;17.20;99.90;;;;;;5116558;28;20637;-68
2022/08/31 01:30:42;;;;;;;3.05;2.00;;;17.10;99.90;;;;;;5116433;28;20169;-68
2022/08/31 01:33:10;;;;;;;3.20;2.20;;;17.10;99.90;;;;;;5116666;28;20168;-67
2022/08/31 01:35:36;;;;;;;2.40;2.20;;;17.10;99.90;;;;;;5116569;28;20222;-67
2022/08/31 01:38:03;;;;;;;2.38;2.00;;;17.10;99.90;;;;;;5116539;28;20184;-67
2022/08/31 01:40:43;;;;;;;2.22;2.03;;;17.20;99.90;;;;;;5116611;28;20176;-68
2022/08/31 01:43:09;;;;;;;2.38;1.90;;;17.20;99.90;;;;;;5116546;27;20233;-67
2022/08/31 01:45:34;;;;;;;1.90;1.80;;;17.20;99.90;;;;;;5116091;28;20665;-68
2022/08/31 01:48:00;;;;;;;2.38;2.13;;;17.20;99.90;;;;;;5116336;28;20258;-67
2022/08/31 01:50:26;;;;;;;3.60;2.25;;;17.20;99.90;;;;;;5114847;28;20282;-67
2022/08/31 01:52:52;;;;;;;2.10;2.00;;;17.20;99.90;;;;;;5116197;28;20183;-67
2022/08/31 01:55:18;;;;;;;2.03;1.88;;;17.20;99.90;;;;;;5116175;28;20627;-68
2022/08/31 01:57:43;;;;;;;2.42;2.05;;;17.20;99.90;;;;;;5116064;28;20212;-68
2022/08/31 02:00:10;;;;;;;2.47;2.20;;;17.20;99.90;;;;;;5115732;28;20637;-68
2022/08/31 02:02:36;;;;;;;3.72;2.20;;;17.20;99.90;;;;;;5115900;28;20226;-68
2022/08/31 02:05:03;;;;;;;2.35;2.15;;;17.20;99.90;;;;;;5115814;28;20241;-67
2022/08/31 02:07:28;;;;;;;2.42;1.90;;;17.20;99.90;;;;;;5115910;28;20168;-67
2022/08/31 02:09:54;;;;;;;8.02;2.22;;;17.20;99.90;;;;;;5116161;28;20169;-68
2022/08/31 02:12:20;;;;;;;3.33;1.90;;;17.20;99.90;;;;;;5115599;28;20716;-67
2022/08/31 02:14:46;;;;;;;2.95;2.20;;;17.20;99.90;;;;;;5115498;28;20196;-67
2022/08/31 02:17:12;;;;;;;3.92;2.20;;;17.20;99.90;;;;;;5116025;28;20180;-67
2022/08/31 02:19:37;;;;;;;3.40;1.90;;;17.20;99.90;;;;;;5115877;28;20226;-67
2022/08/31 02:22:03;;;;;;;5.32;2.30;;;17.10;99.90;;;;;;5115787;28;20212;-68
2022/08/31 02:24:29;;;;;;;2.53;2.30;;;17.20;99.90;;;;;;5115459;28;20223;-67
2022/08/31 02:26:55;;;;;;;2.60;2.00;;;17.10;99.90;;;;;;5116247;28;20294;-67
2022/08/31 02:29:21;;;;;;;4.00;2.60;;;17.10;99.90;;;;;;5115990;28;20173;-67
2022/08/31 02:31:47;;;;;;;3.88;2.22;;;17.10;99.90;;;;;;5118158;28;20172;-68
2022/08/31 02:34:12;;;;;;;2.58;2.30;;;17.10;99.90;;;;;;5117462;28;20168;-67
2022/08/31 02:36:39;;;;;;;3.92;2.58;;;17.20;99.90;;;;;;5117689;28;20179;-68
2022/08/31 02:39:04;;;;;;;2.45;2.22;;;17.20;99.90;;;;;;5116825;28;20165;-67
2022/08/31 02:41:30;;;;;;;4.13;2.08;;;17.10;99.90;;;;;;5115509;28;20168;-68
2022/08/31 02:43:56;;;;;;;3.45;2.08;;;17.10;99.90;;;;;;5114120;28;20180;-67
2022/08/31 02:46:22;;;;;;;4.40;2.25;;;17.10;99.90;;;;;;5113981;28;20207;-68
2022/08/31 02:48:47;;;;;;;3.22;2.08;;;17.10;99.90;;;;;;5115729;28;20168;-67
2022/08/31 02:51:13;;;;;;;2.10;1.90;;;17.10;99.90;;;;;;5113638;28;20177;-67
2022/08/31 02:53:39;;;;;;;3.58;2.20;;;17.10;99.90;;;;;;5115231;28;20167;-67
2022/08/31 02:56:06;;;;;;;2.22;2.00;;;17.10;99.90;;;;;;5114786;28;20238;-68
2022/08/31 02:58:34;;;;;;;2.90;2.25;;;17.10;99.90;;;;;;5115065;28;20770;-72
2022/08/31 03:00:59;;;;;;;2.78;2.30;;;17.10;99.90;;;;;;5114976;28;20187;-67
2022/08/31 03:03:25;;;;;;;4.22;2.40;;;17.10;99.90;;;;;;5116472;28;20172;-67
2022/08/31 03:05:51;;;;;;;4.93;2.28;;;17.10;99.90;;;;;;5115518;28;20211;-67
2022/08/31 03:08:17;;;;;;;3.40;2.20;;;17.10;99.90;;;;;;5114021;28;20640;-67
2022/08/31 03:10:43;;;;;;;2.47;2.00;;;17.10;99.90;;;;;;5115028;28;20168;-67
2022/08/31 03:13:09;;;;;;;3.47;2.28;;;17.00;99.90;;;;;;5115783;28;20178;-67
2022/08/31 03:15:34;;;;;;;3.25;2.17;;;17.00;99.90;;;;;;5114986;28;20279;-67
2022/08/31 03:18:00;;;;;;;2.97;2.47;;;17.00;99.90;;;;;;5113627;28;20258;-67
2022/08/31 03:20:27;;;;;;;5.90;2.25;;;17.00;99.90;;;;;;5113351;28;20570;-67
2022/08/31 03:22:53;;;;;;;2.65;2.25;;;17.00;99.90;;;;;;5115457;28;20168;-67
2022/08/31 03:25:19;;;;;;;5.63;2.35;;;16.90;99.90;;;;;;5114679;28;20244;-67
2022/08/31 03:27:45;;;;;;;3.72;2.10;;;16.90;99.90;;;;;;5114911;28;20180;-67
2022/08/31 03:30:15;;;;;;;2.50;2.30;;;16.90;99.90;;;;;;5114783;28;20221;-67
2022/08/31 03:32:41;;;;;;;3.30;2.47;;;16.90;99.90;;;;;;5114917;28;20251;-67
2022/08/31 03:35:07;;;;;;;3.65;2.22;;;16.80;99.90;;;;;;5113611;28;20215;-67
2022/08/31 03:37:33;;;;;;;4.20;2.50;;;16.80;99.90;;;;;;5115174;28;20169;-67
2022/08/31 03:40:00;;;;;;;5.68;2.20;;;16.80;99.90;;;;;;5113682;28;20182;-67
2022/08/31 03:42:26;;;;;;;3.08;2.30;;;16.80;99.90;;;;;;5114562;28;20222;-67
2022/08/31 03:44:52;;;;;;;3.22;2.40;;;16.80;99.90;;;;;;5114529;28;20219;-67
2022/08/31 03:47:18;;;;;;;3.95;2.80;;;16.80;99.90;;;;;;5115011;28;20200;-67
2022/08/31 03:49:44;;;;;;;2.55;2.35;;;16.80;99.90;;;;;;5113420;28;20176;-67
2022/08/31 03:52:10;;;;;;;3.53;2.60;;;16.70;99.90;;;;;;5113359;28;20183;-67
2022/08/31 03:54:36;;;;;;;2.80;2.28;;;16.80;99.90;;;;;;5114511;28;20188;-67
2022/08/31 03:57:04;;;;;;;3.22;2.30;;;16.80;99.90;;;;;;5114565;28;20238;-67
2022/08/31 03:59:30;;;;;;;2.50;2.30;;;16.80;99.90;;;;;;5114911;28;20200;-68
2022/08/31 04:01:56;;;;;;;4.47;2.42;;;16.80;99.90;;;;;;5114292;28;20633;-67
2022/08/31 04:04:22;;;;;;;2.60;2.40;;;16.80;99.90;;;;;;5114768;28;20189;-68
2022/08/31 04:06:48;;;;;;;3.08;2.35;;;16.80;99.90;;;;;;5114920;28;20207;-67
2022/08/31 04:09:14;;;;;;;3.17;2.55;;;16.80;99.90;;;;;;5114941;28;20213;-67
2022/08/31 04:11:41;;;;;;;2.55;2.20;;;16.80;99.90;;;;;;5115156;28;20259;-67
2022/08/31 04:14:07;;;;;;;3.00;2.58;;;16.80;99.90;;;;;;5115470;28;20173;-67
2022/08/31 04:16:34;;;;;;;3.10;2.45;;;16.80;99.90;;;;;;5115598;28;20171;-68
2022/08/31 04:18:59;;;;;;;2.50;2.30;;;16.80;99.90;;;;;;5114983;28;20261;-67
2022/08/31 04:21:29;;;;;;;4.30;2.53;;;16.80;99.90;;;;;;5114529;28;20172;-68
2022/08/31 04:23:54;;;;;;;3.30;2.47;;;16.80;99.90;;;;;;5113262;28;20184;-67
2022/08/31 04:26:23;;;;;;;2.90;2.20;;;16.70;99.90;;;;;;5114443;28;20208;-67
2022/08/31 04:28:50;;;;;;;2.80;2.55;;;16.80;99.90;;;;;;5113091;28;20172;-67
2022/08/31 04:31:18;;;;;;;2.90;2.50;;;16.70;99.90;;;;;;5114469;28;20656;-67
2022/08/31 04:33:44;;;;;;;2.67;2.40;;;16.70;99.90;;;;;;5117878;28;20242;-67
2022/08/31 04:36:28;;;;;;;5.50;2.50;;;16.70;99.90;;;;;;5118054;28;20193;-67
2022/08/31 04:38:56;;;;;;;3.80;2.65;;;16.60;99.90;;;;;;5116895;28;20214;-67
2022/08/31 04:41:23;;;;;;;5.40;2.53;;;16.70;99.90;;;;;;5117888;28;20206;-67
2022/08/31 04:43:52;;;;;;;2.60;2.38;;;16.70;99.90;;;;;;5117708;28;20243;-67
2022/08/31 04:46:19;;;;;;;4.32;2.40;;;16.70;99.90;;;;;;5117459;28;20568;-67
2022/08/31 04:48:45;;;;;;;5.97;2.65;;;16.60;99.90;;;;;;5118095;28;20175;-67
2022/08/31 04:51:14;;;;;;;2.42;2.22;;;16.70;99.90;;;;;;5117769;28;20525;-67
2022/08/31 04:53:41;;;;;;;3.05;2.78;;;16.70;99.90;;;;;;5117867;28;20577;-67
2022/08/31 04:56:15;;;;;;;2.50;2.30;;;16.60;99.90;;;;;;5117405;28;20184;-67
2022/08/31 04:58:44;;;;;;;3.00;2.33;;;16.60;99.90;;;;;;5117461;28;20190;-67
2022/08/31 05:01:12;;;;;;;3.45;2.50;;;16.60;99.90;;;;;;5117292;28;20583;-67
2022/08/31 05:03:39;;;;;;;2.17;2.05;;;16.60;99.90;;;;;;5117535;28;20172;-70
2022/08/31 05:06:10;;;;;;;3.90;2.50;;;16.60;99.90;;;;;;5116010;28;20212;-67
2022/08/31 05:08:36;;;;;;;3.08;2.50;;;16.60;99.90;;;;;;5117736;28;20156;-67
2022/08/31 05:11:10;;;;;;;4.75;2.60;;;16.60;99.90;;;;;;5116040;28;20193;-67
2022/08/31 05:13:36;;;;;;;2.67;2.47;;;16.60;99.90;;;;;;5117632;28;20169;-67
2022/08/31 05:16:05;;;;;;;6.15;2.53;;;16.60;99.90;;;;;;5116933;28;20200;-67
2022/08/31 05:18:31;;;;;;;2.80;2.50;;;16.60;99.90;;;;;;5115926;28;20196;-67
2022/08/31 05:20:57;;;;;;;2.90;2.30;;;16.60;99.90;;;;;;5117188;28;20169;-67
2022/08/31 05:23:23;;;;;;;3.90;2.50;;;16.60;99.90;;;;;;5115616;28;20184;-67
2022/08/31 05:25:48;;;;;;;4.45;2.42;;;16.60;99.90;;;;;;5116833;28;20242;-67
2022/08/31 05:28:15;;;;;;;4.63;2.55;;;16.50;99.90;;;;;;5116966;28;20180;-67
2022/08/31 05:30:44;;;;;;;2.70;2.50;;;16.60;99.90;;;;;;5115355;28;20172;-67
2022/08/31 05:33:10;;;;;;;4.88;2.72;;;16.50;99.90;;;;;;5116951;28;20172;-67
2022/08/31 05:35:36;;;;;;;4.95;2.88;;;16.50;99.90;;;;;;5117415;28;20193;-67
2022/08/31 05:38:02;;;;;;;4.15;2.70;;;16.50;99.90;;;;;;5117277;28;20177;-67
2022/08/31 05:40:28;;;;;;;3.53;2.72;;;16.50;99.90;;;;;;5117182;28;20183;-67
2022/08/31 05:42:58;;;;;;;3.22;2.50;;;16.50;99.90;;;;;;5116426;28;20168;-67
2022/08/31 05:45:23;;;;;;;2.90;2.35;;;16.60;99.90;;;;;;5116425;27;20199;-67
2022/08/31 05:47:49;;;;;;;3.88;2.55;;;16.50;99.90;;;;;;5116515;28;20172;-67
2022/08/31 05:50:17;;;;;;;3.35;3.03;;;16.50;99.90;;;;;;5116842;28;20192;-68
2022/08/31 05:52:43;;;;;;;2.85;2.50;;;16.50;99.90;;;;;;5116805;28;20168;-67
2022/08/31 05:55:10;;;;;;;5.88;3.10;;;16.50;99.90;;;;;;5116245;28;20283;-67
2022/08/31 05:57:39;;;;;;;3.10;2.72;;;16.50;99.90;;;;;;5116240;28;20592;-68
2022/08/31 06:00:06;;;;;;;3.05;2.65;;;16.50;99.90;;;;;;5117060;28;20164;-68
2022/08/31 06:02:32;;;;;;;3.90;2.97;;;16.40;99.90;;;;;;5116286;28;20196;-67
2022/08/31 06:04:58;;;;;;;3.13;2.65;;;16.40;99.90;;;;;;5115980;28;20730;-67
2022/08/31 06:07:24;;;;;;;3.58;2.70;;;16.40;99.90;;;;;;5114783;28;20252;-67
2022/08/31 06:09:50;;;;;;;2.72;2.50;;;16.50;99.90;;;;;;5114480;28;20263;-68
2022/08/31 06:12:18;;;;;;;3.22;2.80;;;16.50;99.90;;;;;;5114406;28;20168;-67
2022/08/31 06:14:44;;;;;;;4.43;2.60;;;16.50;99.90;;;;;;5116063;28;20196;-67
2022/08/31 06:17:10;;;;;;;4.70;2.83;;;16.50;99.90;;;;;;5115518;28;20180;-67
2022/08/31 06:19:37;;;;;;;3.97;3.05;;;16.50;99.90;;;;;;5115576;28;20243;-67
2022/08/31 06:22:03;;;;;;;3.00;2.60;;;16.50;99.90;;;;;;5115952;28;20514;-68
2022/08/31 06:24:29;;;;;;;4.35;2.97;;;16.50;99.90;;;;;;5115612;28;20188;-67
2022/08/31 06:26:57;;;;;;;2.80;2.60;;;16.60;99.90;;;;;;5115576;28;20204;-67
2022/08/31 06:29:22;;;;;;;3.30;3.00;;;16.60;99.90;;;;;;5115795;28;20157;-67
2022/08/31 06:31:48;;;;;;;4.63;3.17;;;16.60;99.90;;;;;;5115219;28;20226;-67
2022/08/31 06:34:17;;;;;;;5.00;2.75;;;16.70;99.90;;;;;;5115451;28;20168;-68
2022/08/31 06:36:43;;;;;;;4.60;2.70;;;16.70;99.90;;;;;;5114506;28;20177;-67
2022/08/31 06:39:11;;;;;;;5.05;2.70;;;16.80;99.90;;;;;;5114377;28;20184;-68
2022/08/31 06:41:38;;;;;;;4.18;2.97;;;16.80;99.90;;;;;;5115725;28;20157;-67
2022/08/31 06:44:07;;;;;;;4.47;2.53;;;16.90;99.90;;;;;;5115611;28;20168;-67
2022/08/31 06:46:34;;;;;;;3.33;3.03;;;16.90;99.90;;;;;;5115111;27;20184;-67
2022/08/31 06:49:00;;;;;;;4.95;3.00;;;17.00;99.90;;;;;;5115566;28;20652;-67
2022/08/31 06:51:26;;;;;;;5.05;2.60;;;17.10;99.90;;;;;;5115545;28;20168;-67
2022/08/31 06:53:52;;;;;;;3.15;2.75;;;17.20;99.90;;;;;;5113486;28;20530;-67
2022/08/31 06:56:22;;;;;;;4.78;2.72;;;17.30;99.90;;;;;;5115374;28;20200;-67
2022/08/31 06:58:49;;;;;;;4.18;2.70;;;17.50;99.90;;;;;;5117319;28;20185;-68
2022/08/31 07:01:19;;;;;;;3.78;2.85;;;17.60;99.90;;;;;;5114494;28;20191;-67
2022/08/31 07:03:48;;;;;;;6.22;2.70;;;17.70;99.90;;;;;;5113305;28;20176;-67
2022/08/31 07:06:24;;;;;;;2.95;2.67;;;17.70;99.90;;;;;;5114531;28;20211;-68
2022/08/31 07:08:51;;;;;;;5.40;2.78;;;17.70;99.90;;;;;;5114671;28;20167;-67
2022/08/31 07:11:22;;;;;;;6.32;3.20;;;17.70;99.90;;;;;;5113178;28;20222;-68
2022/08/31 07:13:48;;;;;;;7.00;3.50;;;17.80;99.90;;;;;;5114766;28;20152;-68
2022/08/31 07:16:17;;;;;;;7.97;3.15;;;17.80;99.90;;;;;;5114116;28;20703;-68
2022/08/31 07:18:45;;;;;;;5.15;3.53;;;17.70;99.90;;;;;;5113031;28;20180;-68
2022/08/31 07:21:18;;;;;;;3.22;2.92;;;17.70;99.90;;;;;;5114558;28;20177;-68
2022/08/31 07:23:45;;;;;;;3.45;2.85;;;17.70;99.90;;;;;;5112969;28;20560;-67
2022/08/31 07:26:14;;;;;;;3.10;2.70;;;17.80;99.90;;;;;;5113058;28;20204;-68
2022/08/31 07:28:42;;;;;;;6.60;2.95;;;17.70;99.90;;;;;;5114803;28;20176;-68
2022/08/31 07:31:09;;;;;;;5.80;3.50;;;17.70;99.90;;;;;;5114326;28;20165;-68
2022/08/31 07:33:37;;;;;;;4.00;3.05;;;17.70;99.90;;;;;;5112922;28;20238;-68
2022/08/31 07:36:14;;;;;;;5.18;2.90;;;17.80;99.90;;;;;;5114618;28;20196;-67
2022/08/31 07:44:12;;;;;;;3.55;3.13;;;17.90;99.90;;;;;;5117045;28;20171;-67
2022/08/31 07:46:38;;;;;;;3.63;3.10;;;17.90;99.90;;;;;;5116407;28;20208;-68
2022/08/31 07:49:11;;;;;;;5.13;3.20;;;17.90;99.90;;;;;;5115413;28;20160;-69
2022/08/31 07:51:51;;;;;;;6.45;3.13;;;17.80;99.90;;;;;;5115120;27;20174;-67
2022/08/31 07:54:20;;;;;;;5.50;3.47;;;17.90;99.90;;;;;;5113149;28;20259;-67
2022/08/31 07:56:50;;;;;;;4.72;3.42;;;17.90;99.90;;;;;;5114182;28;20274;-69
2022/08/31 07:59:17;;;;;;;4.95;3.08;;;18.00;99.90;;;;;;5112700;28;20176;-67
2022/08/31 08:01:43;;;;;;;4.38;3.22;;;18.10;99.90;;;;;;5113741;28;20176;-67
2022/08/31 08:04:20;;;;;;;5.05;3.70;;;18.20;99.90;;;;;;5112452;28;20191;-67
2022/08/31 08:06:47;;;;;;;6.43;3.17;;;18.20;99.90;;;;;;5118245;28;20188;-68
2022/08/31 08:09:14;;;;;;;4.88;3.72;;;18.20;99.90;;;;;;5118290;28;20153;-69
2022/08/31 08:11:44;;;;;;;4.43;2.78;;;18.30;99.90;;;;;;5117989;28;20186;-68
2022/08/31 08:14:11;;;;;;;5.57;3.10;;;18.40;99.90;;;;;;5116716;28;20233;-68
2022/08/31 08:16:37;;;;;;;5.47;3.45;;;18.50;99.90;;;;;;5116823;28;20184;-65
2022/08/31 08:19:03;;;;;;;4.00;3.60;;;18.70;99.90;;;;;;5117906;28;20215;-66
2022/08/31 08:21:29;;;;;;;4.32;3.70;;;18.70;99.90;;;;;;5117947;28;20169;-66
2022/08/31 08:23:56;;;;;;;4.15;3.42;;;18.70;99.90;;;;;;5117651;28;20281;-65
2022/08/31 08:26:22;;;;;;;4.35;3.60;;;18.70;99.90;;;;;;5117435;28;20211;-65
2022/08/31 08:28:48;;;;;;;4.95;3.55;;;18.70;99.90;;;;;;5116524;28;20607;-65
2022/08/31 08:31:17;;;;;;;6.57;3.38;;;18.70;99.90;;;;;;5117397;28;20641;-65
2022/08/31 08:33:44;;;;;;;3.28;2.92;;;18.80;99.90;;;;;;5118287;28;20576;-65
2022/08/31 08:36:11;;;;;;;8.38;3.90;;;18.80;99.90;;;;;;5117532;28;20196;-65
2022/08/31 08:38:42;;;;;;;4.75;3.35;;;18.90;99.90;;;;;;5117331;27;20676;-65
2022/08/31 08:41:15;;;;;;;6.60;3.47;;;18.90;99.90;;;;;;5116138;28;20274;-66
2022/08/31 08:43:51;;;;;;;4.07;3.45;;;19.00;99.90;;;;;;5117260;28;20248;-66
2022/08/31 08:46:38;;;;;;;4.97;3.40;;;19.10;99.90;;;;;;5116787;28;20617;-66
2022/08/31 08:49:38;;;;;;;6.00;3.88;;;19.20;99.90;;;;;;5109589;28;20267;-67
2022/08/31 08:52:12;;;;;;;5.38;3.60;;;19.30;99.90;;;;;;5095851;28;20656;-66
2022/08/31 08:54:44;;;;;;;5.38;3.67;;;19.40;99.90;;;;;;5117227;28;20274;-66
2022/08/31 08:57:15;;;;;;;5.72;3.80;;;19.60;99.90;;;;;;5117091;28;20259;-66
2022/08/31 08:59:42;;;;;;;3.67;3.28;;;19.60;99.90;;;;;;5116119;28;20539;-66
2022/08/31 09:02:14;;;;;;;3.85;3.38;;;19.60;99.90;;;;;;5116861;28;20669;-67
2022/08/31 09:05:08;;;;;;;6.13;3.92;;;19.70;99.90;;;;;;5117342;28;20227;-67
2022/08/31 09:08:03;;;;;;;4.57;3.72;;;19.80;99.90;;;;;;5117558;28;20169;-66
2022/08/31 09:10:35;;;;;;;4.95;3.88;;;19.90;99.90;;;;;;5118455;28;20146;-66
2022/08/31 09:13:05;;;;;;;5.85;3.85;;;20.10;99.90;;;;;;5117331;28;20236;-66
2022/08/31 09:16:06;;;;;;;5.30;3.72;;;20.30;99.90;;;;;;5116727;28;20203;-66
2022/08/31 09:19:00;;;;;;;4.60;3.83;;;20.60;99.90;;;;;;5115342;28;20214;-66
2022/08/31 09:21:34;;;;;;;4.80;3.53;;;20.90;99.90;;;;;;5117060;28;20156;-66
2022/08/31 09:24:07;;;;;;;8.52;3.60;;;21.20;99.90;;;;;;5115213;28;20169;-67
2022/08/31 09:26:51;;;;;;;4.97;3.05;;;21.30;99.90;;;;;;5115075;28;20233;-66
2022/08/31 09:29:28;;;;;;;5.38;3.70;;;21.50;99.90;;;;;;5115217;28;20157;-66
2022/08/31 09:32:05;;;;;;;4.88;3.92;;;21.50;99.90;;;;;;5116268;28;20156;-66
2022/08/31 09:34:39;;;;;;;5.80;3.55;;;21.60;99.90;;;;;;5116609;27;20276;-67
2022/08/31 09:37:20;;;;;;;5.93;3.60;;;21.70;99.90;;;;;;5116669;28;20159;-67
2022/08/31 09:39:49;;;;;;;3.45;2.90;;;21.90;99.90;;;;;;5116461;28;20197;-66
2022/08/31 09:42:29;;;;;;;4.35;3.17;;;22.10;99.90;;;;;;5116059;28;20256;-67
2022/08/31 09:44:59;;;;;;;4.80;3.38;;;22.30;99.90;;;;;;5114797;28;20199;-66
2022/08/31 09:47:43;;;;;;;5.45;3.60;;;22.50;99.90;;;;;;5114911;28;20189;-66
2022/08/31 09:50:09;;;;;;;8.48;3.38;;;22.60;99.90;;;;;;5116402;28;20160;-66
2022/08/31 09:55:24;;;;;;;6.25;3.35;;;22.80;99.90;;;;;;5115988;28;20576;-67
2022/08/31 09:58:01;;;;;;;4.50;3.30;;;22.80;99.90;;;;;;5115824;28;20185;-67
2022/08/31 10:00:40;;;;;;;5.70;3.63;;;22.90;99.90;;;;;;5115979;28;20160;-66
2022/08/31 10:03:17;;;;;;;5.13;3.70;;;22.90;99.90;;;;;;5114259;28;20539;-66
2022/08/31 10:05:43;;;;;;;5.53;3.40;;;22.90;99.90;;;;;;5114424;28;20314;-66
2022/08/31 10:08:26;;;;;;;7.03;3.85;;;23.00;99.90;;;;;;5115506;28;20638;-66
2022/08/31 10:10:57;;;;;;;7.70;4.13;;;23.00;99.90;;;;;;5115975;28;20175;-66
2022/08/31 10:13:36;;;;;;;5.10;3.28;;;22.90;99.90;;;;;;5116060;27;20164;-66
2022/08/31 10:16:13;;;;;;;7.90;4.22;;;22.90;99.90;;;;;;5113950;28;20200;-67
2022/08/31 10:18:59;;;;;;;4.18;3.10;;;23.00;99.90;;;;;;5114281;28;20192;-66
2022/08/31 10:22:01;;;;;;;5.15;3.63;;;23.10;99.90;;;;;;5114101;28;20215;-67
2022/08/31 10:24:38;;;;;;;4.13;2.92;;;23.00;99.90;;;;;;5114190;28;20196;-66
2022/08/31 10:27:13;;;;;;;3.50;3.15;;;23.10;99.90;;;;;;5115309;28;20532;-66
2022/08/31 10:29:51;;;;;;;4.72;2.97;;;23.10;99.90;;;;;;5115073;28;20247;-66
2022/08/31 10:32:43;;;;;;;5.22;3.03;;;23.20;99.90;;;;;;5115335;28;20149;-67
2022/08/31 10:35:22;;;;;;;5.30;3.58;;;23.20;99.90;;;;;;5115645;28;20189;-66
2022/08/31 10:38:25;;;;;;;11.82;3.72;;;23.30;99.90;;;;;;5115503;28;20243;-67
2022/08/31 10:41:13;;;;;;;5.22;2.75;;;23.40;99.90;;;;;;5115465;28;20152;-66
2022/08/31 10:44:02;;;;;;;9.68;3.22;;;23.40;99.90;;;;;;5115402;28;20163;-66
2022/08/31 10:46:29;;;;;;;5.07;2.92;;;23.50;99.90;;;;;;5115008;28;20188;-67
2022/08/31 10:49:00;;;;;;;4.97;3.30;;;23.50;99.90;;;;;;5115375;28;20168;-66
2022/08/31 10:51:38;;;;;;;6.40;3.28;;;23.50;99.90;;;;;;5113495;28;20556;-66
2022/08/31 10:54:27;;;;;;;4.18;3.25;;;23.50;99.90;;;;;;5114863;28;20157;-72
2022/08/31 10:57:08;;;;;;;5.05;3.15;;;23.40;99.90;;;;;;5115144;28;20179;-66
2022/08/31 10:59:58;;;;;;;4.05;2.97;;;23.40;99.90;;;;;;5113589;28;20178;-67
2022/08/31 11:03:07;;;;;;;7.22;3.35;;;23.70;99.90;;;;;;5114851;28;20230;-67
2022/08/31 11:05:36;;;;;;;6.10;3.42;;;23.90;99.90;;;;;;5116093;28;20676;-66
2022/08/31 11:08:24;;;;;;;3.70;3.03;;;24.10;99.90;;;;;;5114578;28;20176;-66
2022/08/31 11:10:53;;;;;;;4.38;2.83;;;24.30;99.90;;;;;;5115446;28;20202;-66
2022/08/31 11:13:39;;;;;;;4.82;3.47;;;24.50;99.90;;;;;;5114813;28;20198;-67
2022/08/31 11:16:16;;;;;;;3.58;3.28;;;24.50;99.90;;;;;;5114522;28;20200;-67
2022/08/31 11:18:57;;;;;;;5.70;3.28;;;24.40;99.90;;;;;;5114888;28;20191;-66
2022/08/31 11:21:41;;;;;;;6.20;3.50;;;24.30;99.90;;;;;;5114470;28;20237;-66
2022/08/31 11:24:39;;;;;;;3.38;2.97;;;24.10;99.90;;;;;;5113131;28;20176;-66
2022/08/31 11:27:13;;;;;;;3.88;3.08;;;24.10;99.90;;;;;;5091054;28;20223;-66
2022/08/31 11:30:01;;;;;;;3.45;2.70;;;24.20;99.90;;;;;;5112983;28;20203;-66
2022/08/31 11:32:45;;;;;;;6.32;3.13;;;24.60;99.90;;;;;;5114436;28;20172;-66
2022/08/31 11:35:13;;;;;;;4.72;3.42;;;25.00;99.90;;;;;;5114478;28;20234;-67
2022/08/31 11:37:51;;;;;;;5.45;3.50;;;25.20;99.90;;;;;;5114318;28;20297;-67
2022/08/31 11:40:42;;;;;;;5.30;3.47;;;25.10;99.90;;;;;;5113915;28;20232;-66
2022/08/31 11:43:12;;;;;;;6.05;3.03;;;25.00;99.90;;;;;;5114590;28;20148;-66
2022/08/31 11:45:40;;;;;;;4.70;3.00;;;24.90;99.90;;;;;;5114127;28;20192;-67
2022/08/31 11:48:10;;;;;;;3.42;2.80;;;24.60;99.90;;;;;;5113700;28;20669;-67
2022/08/31 11:50:35;;;;;;;3.83;3.10;;;24.40;99.90;;;;;;5114064;28;20184;-66
2022/08/31 11:53:24;;;;;;;4.63;3.35;;;24.30;99.90;;;;;;5112925;28;20172;-67
2022/08/31 11:56:00;;;;;;;5.25;3.40;;;24.10;99.90;;;;;;5114088;28;20234;-66
2022/08/31 11:58:32;;;;;;;3.85;2.90;;;24.00;99.90;;;;;;5114486;28;20271;-66
2022/08/31 12:01:01;;;;;;;4.22;3.13;;;23.80;99.90;;;;;;5114192;28;20160;-66
2022/08/31 12:03:49;;;;;;;3.90;2.88;;;23.70;99.90;;;;;;5113818;28;20172;-66
2022/08/31 12:06:26;;;;;;;4.45;3.30;;;23.60;99.90;;;;;;5113852;28;20192;-66
2022/08/31 12:09:31;;;;;;;5.20;3.40;;;23.60;99.90;;;;;;5112684;28;20210;-66
2022/08/31 12:12:16;;;;;;;5.47;3.58;;;23.60;99.90;;;;;;5098932;28;20181;-67
2022/08/31 12:15:03;;;;;;;5.85;3.25;;;23.60;99.90;;;;;;5113946;28;20550;-66
2022/08/31 12:17:38;;;;;;;5.10;2.95;;;23.60;99.90;;;;;;5112371;28;20173;-68
2022/08/31 12:20:22;;;;;;;3.17;2.80;;;23.60;99.90;;;;;;5113706;28;20199;-66
2022/08/31 12:23:36;;;;;;;6.03;2.75;;;23.60;99.90;;;;;;5112657;28;20224;-67
2022/08/31 12:26:28;;;;;;;5.68;3.15;;;23.70;99.90;;;;;;5113887;28;20204;-66
2022/08/31 12:29:05;;;;;;;4.65;3.30;;;23.80;99.90;;;;;;5092038;28;20691;-67
2022/08/31 12:31:36;;;;;;;4.32;3.47;;;23.80;99.90;;;;;;5093451;28;20157;-67
2022/08/31 12:34:20;;;;;;;5.63;3.55;;;23.80;99.90;;;;;;5092250;28;20204;-66
2022/08/31 12:36:45;;;;;;;4.20;2.80;;;23.90;99.90;;;;;;5093345;28;20168;-65
2022/08/31 12:39:22;;;;;;;5.82;3.13;;;23.90;99.90;;;;;;5093720;28;20236;-67
2022/08/31 12:41:52;;;;;;;5.55;2.65;;;23.90;99.90;;;;;;5093374;28;20603;-68
2022/08/31 12:44:28;;;;;;;4.65;3.97;;;24.00;99.90;;;;;;5093375;28;20185;-67
2022/08/31 12:47:10;;;;;;;3.17;2.88;;;24.40;99.90;;;;;;5091626;28;20284;-67
2022/08/31 12:50:02;;;;;;;4.65;2.70;;;25.00;99.90;;;;;;5093358;28;20610;-67
2022/08/31 12:52:54;;;;;;;3.75;3.00;;;25.50;99.90;;;;;;5094957;28;20543;-68
2022/08/31 12:55:30;;;;;;;5.05;2.75;;;26.20;99.90;;;;;;5080385;28;20224;-68
2022/08/31 12:58:24;;;;;;;3.63;2.88;;;26.80;99.90;;;;;;5096805;28;20188;-68
2022/08/31 13:00:50;;;;;;;3.30;2.72;;;27.00;99.90;;;;;;5096772;28;20611;-67
2022/08/31 13:03:21;;;;;;;4.65;2.63;;;26.70;99.90;;;;;;5096419;28;20173;-67
2022/08/31 13:06:02;;;;;;;4.97;2.80;;;26.30;99.90;;;;;;5096517;28;20197;-65
2022/08/31 13:08:33;;;;;;;6.35;3.00;;;26.00;99.90;;;;;;5095859;28;20172;-65
2022/08/31 13:11:16;;;;;;;4.10;3.15;;;26.20;99.90;;;;;;5096461;28;20219;-65
2022/08/31 13:13:41;;;;;;;3.53;3.08;;;26.50;99.90;;;;;;5095124;28;20169;-65
2022/08/31 13:16:08;;;;;;;4.25;3.10;;;26.90;99.90;;;;;;5095143;28;20242;-65
2022/08/31 13:18:34;;;;;;;3.95;3.00;;;27.10;99.90;;;;;;5095776;28;20303;-65
2022/08/31 13:21:04;;;;;;;6.15;3.17;;;27.30;99.90;;;;;;5096430;28;20622;-67